createdAt,value
2023-02-09T00:00:27.024Z,-4.84
2023-02-09T00:01:47.959Z,-4.89
2023-02-09T00:02:26.895Z,-4.89
2023-02-09T00:03:26.768Z,-4.90
2023-02-09T00:04:26.672Z,-4.86
2023-02-09T00:05:26.585Z,-4.86
2023-02-09T00:06:26.514Z,-4.89
2023-02-09T00:07:47.371Z,-4.85
2023-02-09T00:08:26.305Z,-4.86
2023-02-09T00:09:26.228Z,-4.90
2023-02-09T00:10:26.138Z,-4.86
2023-02-09T00:11:26.047Z,-4.84
2023-02-09T00:12:25.943Z,-4.81
2023-02-09T00:13:46.840Z,-4.86
2023-02-09T00:14:25.773Z,-4.82
2023-02-09T00:15:25.686Z,-4.89
2023-02-09T00:16:25.637Z,-4.82
2023-02-09T00:17:25.504Z,-4.90
2023-02-09T00:18:25.407Z,-5.03
2023-02-09T00:19:46.315Z,-5.04
2023-02-09T00:20:25.237Z,-5.21
2023-02-09T00:21:25.135Z,-5.18
2023-02-09T00:22:25.067Z,-5.06
2023-02-09T00:23:24.962Z,-5.16
2023-02-09T00:24:24.870Z,-5.13
2023-02-09T00:25:45.757Z,-5.29
2023-02-09T00:26:24.710Z,-5.10
2023-02-09T00:27:24.602Z,-5.21
2023-02-09T00:28:24.524Z,-5.06
2023-02-09T00:29:24.426Z,-5.03
2023-02-09T00:30:24.340Z,-5.02
2023-02-09T00:31:45.235Z,-5.03
2023-02-09T00:32:24.152Z,-5.04
2023-02-09T00:33:24.077Z,-4.96
2023-02-09T00:34:23.960Z,-4.99
2023-02-09T00:35:23.878Z,-5.02
2023-02-09T00:36:23.794Z,-4.94
2023-02-09T00:37:44.677Z,-4.90
2023-02-09T00:38:23.601Z,-4.93
2023-02-09T00:39:23.512Z,-4.93
2023-02-09T00:40:23.422Z,-4.93
2023-02-09T00:41:23.339Z,-4.96
2023-02-09T00:42:23.251Z,-5.02
2023-02-09T00:43:44.148Z,-5.03
2023-02-09T00:44:23.063Z,-5.06
2023-02-09T00:45:22.984Z,-5.03
2023-02-09T00:46:22.892Z,-5.13
2023-02-09T00:47:22.804Z,-5.00
2023-02-09T00:48:22.702Z,-5.04
2023-02-09T00:49:43.590Z,-5.02
2023-02-09T00:50:22.524Z,-4.97
2023-02-09T00:51:22.450Z,-4.96
2023-02-09T00:52:22.343Z,-4.96
2023-02-09T00:53:22.262Z,-5.00
2023-02-09T00:54:22.172Z,-5.04
2023-02-09T00:55:43.072Z,-5.11
2023-02-09T00:56:21.989Z,-5.10
2023-02-09T00:57:21.898Z,-4.99
2023-02-09T00:58:21.851Z,-4.99
2023-02-09T00:59:21.716Z,-5.00
2023-02-09T01:00:21.640Z,-5.03
2023-02-09T01:01:42.526Z,-5.10
2023-02-09T01:02:21.459Z,-5.11
2023-02-09T01:03:21.367Z,-5.06
2023-02-09T01:04:21.291Z,-5.04
2023-02-09T01:05:21.199Z,-5.13
2023-02-09T01:06:21.084Z,-5.25
2023-02-09T01:07:41.972Z,-5.16
2023-02-09T01:08:20.912Z,-5.16
2023-02-09T01:09:20.822Z,-5.19
2023-02-09T01:10:20.711Z,-5.19
2023-02-09T01:11:20.648Z,-5.19
2023-02-09T01:12:20.541Z,-5.11
2023-02-09T01:13:41.430Z,-5.21
2023-02-09T01:14:20.363Z,-5.18
2023-02-09T01:15:20.291Z,-5.19
2023-02-09T01:16:20.235Z,-5.23
2023-02-09T01:17:20.093Z,-5.22
2023-02-09T01:18:20.004Z,-5.22
2023-02-09T01:19:40.901Z,-5.27
2023-02-09T01:20:19.818Z,-5.25
2023-02-09T01:21:19.736Z,-5.34
2023-02-09T01:22:19.656Z,-5.27
2023-02-09T01:23:19.560Z,-5.36
2023-02-09T01:24:19.461Z,-5.40
2023-02-09T01:25:40.352Z,-5.36
2023-02-09T01:26:19.274Z,-5.34
2023-02-09T01:27:19.201Z,-5.37
2023-02-09T01:28:19.205Z,-5.42
2023-02-09T01:29:19.024Z,-5.40
2023-02-09T01:30:18.919Z,-5.52
2023-02-09T01:31:39.937Z,-5.52
2023-02-09T01:32:18.742Z,-5.66
2023-02-09T01:33:18.662Z,-5.61
2023-02-09T01:34:18.550Z,-5.72
2023-02-09T01:35:18.468Z,-5.62
2023-02-09T01:36:18.391Z,-5.71
2023-02-09T01:37:39.290Z,-5.65
2023-02-09T01:38:18.206Z,-5.71
2023-02-09T01:39:18.109Z,-5.66
2023-02-09T01:40:18.020Z,-5.65
2023-02-09T01:41:17.932Z,-5.57
2023-02-09T01:42:17.838Z,-5.51
2023-02-09T01:43:38.719Z,-5.58
2023-02-09T01:44:17.656Z,-5.51
2023-02-09T01:45:17.568Z,-5.47
2023-02-09T01:46:17.607Z,-5.50
2023-02-09T01:47:17.391Z,-5.52
2023-02-09T01:48:17.296Z,-5.55
2023-02-09T01:49:38.192Z,-5.57
2023-02-09T01:50:17.116Z,-5.57
2023-02-09T01:51:17.036Z,-5.57
2023-02-09T01:52:16.986Z,-5.62
2023-02-09T01:53:16.850Z,-5.71
2023-02-09T01:54:16.755Z,-5.66
2023-02-09T01:55:37.652Z,-5.66
2023-02-09T01:56:16.589Z,-5.62
2023-02-09T01:57:16.497Z,-5.68
2023-02-09T01:58:16.395Z,-5.72
2023-02-09T01:59:16.316Z,-5.71
2023-02-09T02:00:16.278Z,-5.75
2023-02-09T02:01:37.156Z,-5.71
2023-02-09T02:02:16.042Z,-5.71
2023-02-09T02:03:15.962Z,-5.75
2023-02-09T02:04:15.864Z,-5.69
2023-02-09T02:05:15.770Z,-5.73
2023-02-09T02:06:15.680Z,-5.71
2023-02-09T02:07:36.586Z,-5.66
2023-02-09T02:08:15.492Z,-5.69
2023-02-09T02:09:15.411Z,-5.69
2023-02-09T02:10:15.312Z,-5.72
2023-02-09T02:11:15.237Z,-5.68
2023-02-09T02:12:15.132Z,-5.73
2023-02-09T02:13:36.014Z,-5.62
2023-02-09T02:14:14.960Z,-5.69
2023-02-09T02:15:14.870Z,-5.61
2023-02-09T02:16:14.814Z,-5.69
2023-02-09T02:17:14.696Z,-5.78
2023-02-09T02:18:14.583Z,-5.78
2023-02-09T02:19:35.479Z,-5.76
2023-02-09T02:20:14.431Z,-5.76
2023-02-09T02:21:14.329Z,-5.73
2023-02-09T02:22:14.227Z,-5.75
2023-02-09T02:23:14.129Z,-5.76
2023-02-09T02:24:14.041Z,-5.78
2023-02-09T02:25:34.945Z,-5.81
2023-02-09T02:26:13.872Z,-5.81
2023-02-09T02:27:13.778Z,-5.86
2023-02-09T02:28:13.720Z,-5.89
2023-02-09T02:29:13.596Z,-5.84
2023-02-09T02:30:13.510Z,-5.86
2023-02-09T02:31:34.415Z,-5.97
2023-02-09T02:32:13.325Z,-5.90
2023-02-09T02:33:13.230Z,-5.97
2023-02-09T02:34:13.147Z,-6.00
2023-02-09T02:35:13.048Z,-5.96
2023-02-09T02:36:12.957Z,-5.96
2023-02-09T02:37:33.834Z,-5.94
2023-02-09T02:38:12.769Z,-5.91
2023-02-09T02:39:12.694Z,-5.94
2023-02-09T02:40:12.588Z,-5.93
2023-02-09T02:41:12.501Z,-5.81
2023-02-09T02:42:12.455Z,-5.87
2023-02-09T02:43:33.292Z,-5.83
2023-02-09T02:44:12.224Z,-5.83
2023-02-09T02:45:12.146Z,-5.87
2023-02-09T02:46:12.066Z,-5.86
2023-02-09T02:47:11.971Z,-5.89
2023-02-09T02:48:11.881Z,-5.87
2023-02-09T02:49:32.763Z,-5.94
2023-02-09T02:50:11.689Z,-6.05
2023-02-09T02:51:11.604Z,-6.04
2023-02-09T02:52:11.520Z,-6.05
2023-02-09T02:53:11.429Z,-6.00
2023-02-09T02:54:11.327Z,-6.07
2023-02-09T02:55:32.230Z,-6.07
2023-02-09T02:56:11.155Z,-6.08
2023-02-09T02:57:11.074Z,-6.04
2023-02-09T02:58:10.972Z,-5.96
2023-02-09T02:59:10.876Z,-6.05
2023-02-09T03:00:10.806Z,-6.04
2023-02-09T03:01:31.746Z,-6.04
2023-02-09T03:02:10.622Z,-6.07
2023-02-09T03:03:10.516Z,-5.99
2023-02-09T03:04:10.430Z,-5.99
2023-02-09T03:05:10.377Z,-6.05
2023-02-09T03:06:10.259Z,-6.00
2023-02-09T03:07:31.137Z,-6.02
2023-02-09T03:08:10.057Z,-6.02
2023-02-09T03:09:09.995Z,-6.05
2023-02-09T03:10:09.888Z,-6.08
2023-02-09T03:11:09.803Z,-6.00
2023-02-09T03:12:09.708Z,-6.05
2023-02-09T03:13:30.608Z,-6.02
2023-02-09T03:14:09.529Z,-6.07
2023-02-09T03:15:09.449Z,-6.02
2023-02-09T03:16:09.369Z,-6.05
2023-02-09T03:17:09.263Z,-6.11
2023-02-09T03:18:09.164Z,-6.11
2023-02-09T03:19:30.064Z,-6.08
2023-02-09T03:20:08.998Z,-6.10
2023-02-09T03:21:08.890Z,-6.14
2023-02-09T03:22:08.808Z,-6.10
2023-02-09T03:23:08.709Z,-6.26
2023-02-09T03:24:08.621Z,-6.25
2023-02-09T03:25:29.510Z,-6.12
2023-02-09T03:26:08.448Z,-6.23
2023-02-09T03:27:08.356Z,-6.23
2023-02-09T03:28:08.285Z,-6.07
2023-02-09T03:29:08.183Z,-6.12
2023-02-09T03:30:08.078Z,-6.14
2023-02-09T03:31:29.112Z,-6.10
2023-02-09T03:32:07.892Z,-6.12
2023-02-09T03:33:09.718Z,-6.11
2023-02-09T03:34:07.709Z,-6.15
2023-02-09T03:35:07.627Z,-6.11
2023-02-09T03:36:07.523Z,-6.12
2023-02-09T03:37:28.421Z,-6.23
2023-02-09T03:38:07.411Z,-6.14
2023-02-09T03:39:07.264Z,-6.12
2023-02-09T03:40:07.159Z,-6.08
2023-02-09T03:41:08.081Z,-6.10
2023-02-09T03:42:06.992Z,-6.28
2023-02-09T03:43:27.869Z,-6.10
2023-02-09T03:44:06.794Z,-6.10
2023-02-09T03:45:06.722Z,-6.26
2023-02-09T03:46:06.665Z,-6.08
2023-02-09T03:47:06.544Z,-6.10
2023-02-09T03:48:06.432Z,-6.07
2023-02-09T03:49:27.336Z,-6.18
2023-02-09T03:50:06.253Z,-6.10
2023-02-09T03:51:06.165Z,-6.20
2023-02-09T03:52:06.090Z,-6.32
2023-02-09T03:53:05.994Z,-6.28
2023-02-09T03:54:05.914Z,-6.29
2023-02-09T03:55:26.777Z,-6.30
2023-02-09T03:56:05.706Z,-6.32
2023-02-09T03:57:05.630Z,-6.46
2023-02-09T03:58:05.541Z,-6.44
2023-02-09T03:59:05.443Z,-6.51
2023-02-09T04:00:05.360Z,-6.49
2023-02-09T04:01:26.241Z,-6.53
2023-02-09T04:02:05.226Z,-6.41
2023-02-09T04:03:05.072Z,-6.36
2023-02-09T04:04:04.989Z,-6.49
2023-02-09T04:05:06.018Z,-6.43
2023-02-09T04:06:04.822Z,-6.47
2023-02-09T04:07:25.691Z,-6.46
2023-02-09T04:08:04.623Z,-6.56
2023-02-09T04:09:04.528Z,-6.47
2023-02-09T04:10:04.436Z,-6.49
2023-02-09T04:11:04.354Z,-6.51
2023-02-09T04:12:04.260Z,-6.44
2023-02-09T04:13:25.148Z,-6.43
2023-02-09T04:14:04.087Z,-6.43
2023-02-09T04:15:04.034Z,-6.41
2023-02-09T04:16:03.946Z,-6.40
2023-02-09T04:17:03.809Z,-6.41
2023-02-09T04:18:03.727Z,-6.41
2023-02-09T04:19:24.596Z,-6.38
2023-02-09T04:20:03.533Z,-6.46
2023-02-09T04:21:03.454Z,-6.43
2023-02-09T04:22:03.363Z,-6.40
2023-02-09T04:23:03.250Z,-6.30
2023-02-09T04:24:03.170Z,-6.36
2023-02-09T04:25:24.065Z,-6.41
2023-02-09T04:26:02.991Z,-6.43
2023-02-09T04:27:02.898Z,-6.44
2023-02-09T04:28:02.865Z,-6.43
2023-02-09T04:29:02.724Z,-6.49
2023-02-09T04:30:02.635Z,-6.50
2023-02-09T04:31:23.563Z,-6.51
2023-02-09T04:32:02.518Z,-6.53
2023-02-09T04:33:02.353Z,-6.47
2023-02-09T04:34:02.267Z,-6.47
2023-02-09T04:35:02.217Z,-6.44
2023-02-09T04:36:02.084Z,-6.47
2023-02-09T04:37:22.959Z,-6.51
2023-02-09T04:38:01.899Z,-6.56
2023-02-09T04:39:01.811Z,-6.54
2023-02-09T04:40:01.738Z,-6.60
2023-02-09T04:41:01.630Z,-6.54
2023-02-09T04:42:01.570Z,-6.63
2023-02-09T04:43:22.440Z,-6.60
2023-02-09T04:44:01.359Z,-6.62
2023-02-09T04:45:01.270Z,-6.59
2023-02-09T04:46:01.244Z,-6.62
2023-02-09T04:47:01.092Z,-6.62
2023-02-09T04:48:01.002Z,-6.56
2023-02-09T04:49:21.884Z,-6.56
2023-02-09T04:50:00.823Z,-6.62
2023-02-09T04:51:00.724Z,-6.54
2023-02-09T04:52:00.639Z,-6.56
2023-02-09T04:53:00.540Z,-6.56
2023-02-09T04:54:00.457Z,-6.59
2023-02-09T04:55:21.337Z,-6.62
2023-02-09T04:56:00.272Z,-6.59
2023-02-09T04:57:00.184Z,-6.59
2023-02-09T04:58:00.101Z,-6.54
2023-02-09T04:59:00.000Z,-6.60
2023-02-09T04:59:59.913Z,-6.59
2023-02-09T05:01:20.821Z,-6.60
2023-02-09T05:01:59.716Z,-6.62
2023-02-09T05:02:59.627Z,-6.63
2023-02-09T05:03:59.544Z,-6.69
2023-02-09T05:04:59.453Z,-6.56
2023-02-09T05:05:59.363Z,-6.62
2023-02-09T05:07:20.247Z,-6.65
2023-02-09T05:07:59.182Z,-6.68
2023-02-09T05:08:59.089Z,-6.65
2023-02-09T05:09:59.000Z,-6.59
2023-02-09T05:10:58.904Z,-6.59
2023-02-09T05:11:58.887Z,-6.65
2023-02-09T05:13:19.695Z,-6.69
2023-02-09T05:13:58.640Z,-6.70
2023-02-09T05:14:58.533Z,-6.66
2023-02-09T05:15:58.446Z,-6.69
2023-02-09T05:16:58.427Z,-6.68
2023-02-09T05:17:58.273Z,-6.68
2023-02-09T05:19:19.149Z,-6.68
2023-02-09T05:19:58.092Z,-6.69
2023-02-09T05:20:58.007Z,-6.73
2023-02-09T05:21:57.923Z,-6.66
2023-02-09T05:22:57.827Z,-6.73
2023-02-09T05:23:57.732Z,-6.63
2023-02-09T05:25:18.599Z,-6.69
2023-02-09T05:25:57.541Z,-6.65
2023-02-09T05:26:57.458Z,-6.73
2023-02-09T05:27:57.397Z,-6.65
2023-02-09T05:28:57.264Z,-6.76
2023-02-09T05:29:57.174Z,-6.73
2023-02-09T05:31:18.201Z,-6.79
2023-02-09T05:31:57.063Z,-6.76
2023-02-09T05:32:56.915Z,-6.80
2023-02-09T05:33:56.811Z,-6.70
2023-02-09T05:34:56.715Z,-6.80
2023-02-09T05:35:56.645Z,-6.75
2023-02-09T05:37:17.528Z,-6.84
2023-02-09T05:37:56.449Z,-6.79
2023-02-09T05:38:56.358Z,-6.76
2023-02-09T05:39:56.262Z,-6.84
2023-02-09T05:40:56.183Z,-6.86
2023-02-09T05:41:56.084Z,-6.86
2023-02-09T05:43:16.964Z,-6.84
2023-02-09T05:43:55.900Z,-6.87
2023-02-09T05:44:55.820Z,-6.83
2023-02-09T05:45:55.759Z,-6.83
2023-02-09T05:46:55.635Z,-6.81
2023-02-09T05:47:55.542Z,-6.81
2023-02-09T05:49:16.423Z,-6.81
2023-02-09T05:49:55.361Z,-6.81
2023-02-09T05:50:55.265Z,-6.73
2023-02-09T05:51:55.180Z,-6.76
2023-02-09T05:52:55.075Z,-6.81
2023-02-09T05:53:54.989Z,-6.81
2023-02-09T05:55:15.880Z,-6.86
2023-02-09T05:55:54.821Z,-6.91
2023-02-09T05:56:54.717Z,-6.93
2023-02-09T05:57:54.633Z,-6.93
2023-02-09T05:58:54.538Z,-6.86
2023-02-09T05:59:54.447Z,-6.93
2023-02-09T06:01:15.334Z,-7.01
2023-02-09T06:01:54.278Z,-7.04
2023-02-09T06:02:54.176Z,-6.99
2023-02-09T06:03:54.149Z,-7.07
2023-02-09T06:04:53.989Z,-7.04
2023-02-09T06:05:53.897Z,-7.12
2023-02-09T06:07:14.784Z,-7.12
2023-02-09T06:07:53.725Z,-7.09
2023-02-09T06:08:53.622Z,-7.09
2023-02-09T06:09:53.546Z,-7.14
2023-02-09T06:10:53.450Z,-7.12
2023-02-09T06:11:53.349Z,-7.11
2023-02-09T06:13:14.230Z,-7.09
2023-02-09T06:13:53.172Z,-7.04
2023-02-09T06:14:53.079Z,-7.04
2023-02-09T06:15:53.026Z,-7.01
2023-02-09T06:16:52.893Z,-7.04
2023-02-09T06:17:52.799Z,-7.08
2023-02-09T06:19:13.694Z,-7.09
2023-02-09T06:19:52.624Z,-7.11
2023-02-09T06:20:52.529Z,-7.07
2023-02-09T06:21:52.431Z,-7.09
2023-02-09T06:22:52.338Z,-7.12
2023-02-09T06:23:52.250Z,-7.16
2023-02-09T06:25:13.140Z,-7.16
2023-02-09T06:25:52.070Z,-7.22
2023-02-09T06:26:51.982Z,-7.14
2023-02-09T06:27:51.960Z,-7.22
2023-02-09T06:28:51.802Z,-7.20
2023-02-09T06:29:51.710Z,-7.22
2023-02-09T06:31:12.737Z,-7.19
2023-02-09T06:31:51.625Z,-7.26
2023-02-09T06:32:51.425Z,-7.26
2023-02-09T06:33:51.347Z,-7.28
2023-02-09T06:34:51.260Z,-7.30
2023-02-09T06:35:52.389Z,-7.26
2023-02-09T06:37:12.043Z,-7.26
2023-02-09T06:37:50.994Z,-7.29
2023-02-09T06:38:50.888Z,-7.29
2023-02-09T06:39:50.796Z,-7.30
2023-02-09T06:40:50.707Z,-7.34
2023-02-09T06:41:50.622Z,-7.28
2023-02-09T06:43:11.504Z,-7.32
2023-02-09T06:43:50.432Z,-7.30
2023-02-09T06:44:50.335Z,-7.30
2023-02-09T06:45:50.290Z,-7.30
2023-02-09T06:46:50.161Z,-7.28
2023-02-09T06:47:50.087Z,-7.28
2023-02-09T06:49:10.952Z,-7.25
2023-02-09T06:49:49.891Z,-7.20
2023-02-09T06:50:49.797Z,-7.14
2023-02-09T06:51:49.726Z,-7.19
2023-02-09T06:52:49.629Z,-7.16
2023-02-09T06:53:49.522Z,-7.16
2023-02-09T06:55:10.414Z,-7.14
2023-02-09T06:55:49.352Z,-7.19
2023-02-09T06:56:49.239Z,-7.22
2023-02-09T06:57:49.175Z,-7.23
2023-02-09T06:58:49.056Z,-7.22
2023-02-09T06:59:48.986Z,-7.22
2023-02-09T07:01:09.872Z,-7.19
2023-02-09T07:01:48.846Z,-7.23
2023-02-09T07:02:48.765Z,-7.14
2023-02-09T07:03:48.607Z,-7.22
2023-02-09T07:04:48.514Z,-7.16
2023-02-09T07:05:48.439Z,-7.18
2023-02-09T07:07:09.317Z,-7.12
2023-02-09T07:07:48.268Z,-7.18
2023-02-09T07:08:48.144Z,-7.19
2023-02-09T07:09:48.081Z,-7.20
2023-02-09T07:10:48.086Z,-7.20
2023-02-09T07:11:47.876Z,-7.18
2023-02-09T07:13:08.764Z,-7.23
2023-02-09T07:13:47.720Z,-7.25
2023-02-09T07:14:47.616Z,-7.19
2023-02-09T07:15:47.537Z,-7.16
2023-02-09T07:16:47.431Z,-7.08
2023-02-09T07:17:47.340Z,-7.08
2023-02-09T07:19:08.219Z,-7.04
2023-02-09T07:19:47.156Z,-6.99
2023-02-09T07:20:47.279Z,-6.94
2023-02-09T07:21:46.968Z,-6.86
2023-02-09T07:22:46.874Z,-6.76
2023-02-09T07:23:46.815Z,-6.75
2023-02-09T07:25:07.690Z,-6.68
2023-02-09T07:25:46.606Z,-6.63
2023-02-09T07:26:46.509Z,-6.65
2023-02-09T07:27:46.434Z,-6.41
2023-02-09T07:28:46.318Z,-6.51
2023-02-09T07:29:46.244Z,-6.43
2023-02-09T07:31:07.274Z,-6.40
2023-02-09T07:31:46.181Z,-6.23
2023-02-09T07:32:45.976Z,-6.05
2023-02-09T07:33:45.899Z,-5.81
2023-02-09T07:34:45.788Z,-5.72
2023-02-09T07:35:45.685Z,-5.65
2023-02-09T07:37:06.579Z,-5.47
2023-02-09T07:37:45.511Z,-5.30
2023-02-09T07:38:45.420Z,-5.11
2023-02-09T07:39:45.321Z,-4.97
2023-02-09T07:40:45.567Z,-4.78
2023-02-09T07:41:45.144Z,-4.60
2023-02-09T07:43:06.038Z,-4.42
2023-02-09T07:43:44.970Z,-4.19
2023-02-09T07:44:44.876Z,-3.96
2023-02-09T07:45:45.072Z,-3.75
2023-02-09T07:46:44.714Z,-3.61
2023-02-09T07:47:44.596Z,-3.60
2023-02-09T07:49:05.483Z,-3.50
2023-02-09T07:49:44.419Z,-3.39
2023-02-09T07:50:44.553Z,-3.32
2023-02-09T07:51:44.247Z,-3.20
2023-02-09T07:52:44.143Z,-3.09
2023-02-09T07:53:44.058Z,-3.21
2023-02-09T07:55:04.930Z,-3.11
2023-02-09T07:55:44.144Z,-3.11
2023-02-09T07:56:43.797Z,-3.14
2023-02-09T07:57:43.692Z,-3.01
2023-02-09T07:58:43.602Z,-2.83
2023-02-09T07:59:43.509Z,-2.77
2023-02-09T08:01:04.417Z,-2.70
2023-02-09T08:01:43.344Z,-2.65
2023-02-09T08:02:43.247Z,-2.59
2023-02-09T08:03:43.167Z,-2.42
2023-02-09T08:04:43.089Z,-2.36
2023-02-09T08:05:42.997Z,-2.17
2023-02-09T08:07:03.868Z,-2.16
2023-02-09T08:07:42.800Z,-1.84
2023-02-09T08:08:42.720Z,-1.77
2023-02-09T08:09:42.609Z,-1.65
2023-02-09T08:10:42.535Z,-1.48
2023-02-09T08:11:43.971Z,-1.29
2023-02-09T08:13:03.318Z,-1.17
2023-02-09T08:13:42.253Z,-1.23
2023-02-09T08:14:42.171Z,-1.13
2023-02-09T08:15:42.081Z,-1.03
2023-02-09T08:16:41.994Z,-0.80
2023-02-09T08:17:41.894Z,-0.62
2023-02-09T08:19:02.802Z,-0.61
2023-02-09T08:19:41.729Z,-0.58
2023-02-09T08:20:41.675Z,-0.76
2023-02-09T08:21:41.556Z,-1.14
2023-02-09T08:22:41.459Z,-1.17
2023-02-09T08:23:41.361Z,-1.16
2023-02-09T08:25:02.273Z,-1.05
2023-02-09T08:25:41.195Z,-1.02
2023-02-09T08:26:41.105Z,-0.80
2023-02-09T08:27:41.001Z,-0.68
2023-02-09T08:28:44.446Z,-0.62
2023-02-09T08:29:40.828Z,-0.47
2023-02-09T08:31:01.736Z,-0.43
2023-02-09T08:31:40.775Z,-0.41
2023-02-09T08:32:40.579Z,-0.29
2023-02-09T08:33:40.481Z,-0.19
2023-02-09T08:34:40.403Z,-0.02
2023-02-09T08:35:40.317Z,0.14
2023-02-09T08:37:01.192Z,0.42
2023-02-09T08:37:40.120Z,0.46
2023-02-09T08:38:40.040Z,0.46
2023-02-09T08:39:39.975Z,0.47
2023-02-09T08:40:39.856Z,0.45
2023-02-09T08:41:39.767Z,0.59
2023-02-09T08:43:00.687Z,0.68
2023-02-09T08:43:39.600Z,0.79
2023-02-09T08:44:39.515Z,0.92
2023-02-09T08:45:39.485Z,1.16
2023-02-09T08:46:39.418Z,1.16
2023-02-09T08:47:39.250Z,1.28
2023-02-09T08:49:00.144Z,1.22
2023-02-09T08:49:39.062Z,1.28
2023-02-09T08:50:38.996Z,1.18
2023-02-09T08:51:38.893Z,1.25
2023-02-09T08:52:38.840Z,1.40
2023-02-09T08:53:38.749Z,1.58
2023-02-09T08:54:59.610Z,1.52
2023-02-09T08:55:38.546Z,1.32
2023-02-09T08:56:38.470Z,1.41
2023-02-09T08:57:44.110Z,1.44
2023-02-09T08:58:38.324Z,1.58
2023-02-09T08:59:38.217Z,1.64
2023-02-09T09:00:59.121Z,1.80
2023-02-09T09:01:38.025Z,1.77
2023-02-09T09:02:38.034Z,1.82
2023-02-09T09:03:37.885Z,1.98
2023-02-09T09:04:37.758Z,2.12
2023-02-09T09:05:37.670Z,2.19
2023-02-09T09:06:58.574Z,2.12
2023-02-09T09:07:37.551Z,2.02
2023-02-09T09:08:37.411Z,1.83
2023-02-09T09:09:37.326Z,1.87
2023-02-09T09:10:37.249Z,2.03
2023-02-09T09:11:37.164Z,2.10
2023-02-09T09:12:58.053Z,2.13
2023-02-09T09:13:36.981Z,2.14
2023-02-09T09:14:36.894Z,2.16
2023-02-09T09:15:36.803Z,1.99
2023-02-09T09:16:36.789Z,1.82
2023-02-09T09:17:36.640Z,1.52
2023-02-09T09:18:57.522Z,1.43
2023-02-09T09:19:36.467Z,1.32
2023-02-09T09:20:36.380Z,1.48
2023-02-09T09:21:36.285Z,1.55
2023-02-09T09:22:36.204Z,1.65
2023-02-09T09:23:36.121Z,1.83
2023-02-09T09:24:57.014Z,1.87
2023-02-09T09:25:35.933Z,1.83
2023-02-09T09:26:35.866Z,1.84
2023-02-09T09:27:35.759Z,1.87
2023-02-09T09:28:35.679Z,1.84
2023-02-09T09:29:35.587Z,1.77
2023-02-09T09:30:56.508Z,1.52
2023-02-09T09:31:35.529Z,1.58
2023-02-09T09:32:35.407Z,1.65
2023-02-09T09:33:35.252Z,1.59
2023-02-09T09:34:35.169Z,1.44
2023-02-09T09:35:35.079Z,1.59
2023-02-09T09:36:55.976Z,1.64
2023-02-09T09:37:34.908Z,1.76
2023-02-09T09:38:34.826Z,1.83
2023-02-09T09:39:34.729Z,1.98
2023-02-09T09:40:34.672Z,2.12
2023-02-09T09:41:34.637Z,1.77
2023-02-09T09:42:55.451Z,1.50
2023-02-09T09:43:34.384Z,1.54
2023-02-09T09:44:34.310Z,1.46
2023-02-09T09:45:34.218Z,1.40
2023-02-09T09:46:34.245Z,1.44
2023-02-09T09:47:34.047Z,1.61
2023-02-09T09:48:54.955Z,1.82
2023-02-09T09:49:33.876Z,2.05
2023-02-09T09:50:33.783Z,2.10
2023-02-09T09:51:33.705Z,2.10
2023-02-09T09:52:33.609Z,2.13
2023-02-09T09:53:33.581Z,2.24
2023-02-09T09:54:54.491Z,2.12
2023-02-09T09:55:33.355Z,1.86
2023-02-09T09:56:33.272Z,1.94
2023-02-09T09:57:33.174Z,2.10
2023-02-09T09:58:33.108Z,2.10
2023-02-09T09:59:33.014Z,2.20
2023-02-09T10:00:53.966Z,2.21
2023-02-09T10:01:32.901Z,2.32
2023-02-09T10:02:32.762Z,2.41
2023-02-09T10:03:32.665Z,2.70
2023-02-09T10:04:32.663Z,2.75
2023-02-09T10:05:32.494Z,2.66
2023-02-09T10:06:53.388Z,2.30
2023-02-09T10:07:32.314Z,1.94
2023-02-09T10:08:32.236Z,1.87
2023-02-09T10:09:32.146Z,1.90
2023-02-09T10:10:32.057Z,1.73
2023-02-09T10:11:31.963Z,1.62
2023-02-09T10:12:52.875Z,1.59
2023-02-09T10:13:31.808Z,1.73
2023-02-09T10:14:31.727Z,1.79
2023-02-09T10:15:31.626Z,1.61
2023-02-09T10:16:31.580Z,1.77
2023-02-09T10:17:31.466Z,1.79
2023-02-09T10:18:52.362Z,1.59
2023-02-09T10:19:31.293Z,1.82
2023-02-09T10:20:31.321Z,1.86
2023-02-09T10:21:31.134Z,1.99
2023-02-09T10:22:31.042Z,1.94
2023-02-09T10:23:30.948Z,2.21
2023-02-09T10:24:51.848Z,2.06
2023-02-09T10:25:30.785Z,2.21
2023-02-09T10:26:30.698Z,2.26
2023-02-09T10:27:30.610Z,2.31
2023-02-09T10:28:30.546Z,2.56
2023-02-09T10:29:30.440Z,2.71
2023-02-09T10:30:51.447Z,2.85
2023-02-09T10:31:30.374Z,2.88
2023-02-09T10:32:30.183Z,2.88
2023-02-09T10:33:30.095Z,2.75
2023-02-09T10:34:30.042Z,2.67
2023-02-09T10:35:29.928Z,2.60
2023-02-09T10:36:50.833Z,2.63
2023-02-09T10:37:29.749Z,2.50
2023-02-09T10:38:31.157Z,2.52
2023-02-09T10:39:29.578Z,2.55
2023-02-09T10:40:29.494Z,2.55
2023-02-09T10:41:29.399Z,2.55
2023-02-09T10:42:50.302Z,2.50
2023-02-09T10:43:29.261Z,2.41
2023-02-09T10:44:29.160Z,2.53
2023-02-09T10:45:29.082Z,2.49
2023-02-09T10:46:29.044Z,2.34
2023-02-09T10:47:28.901Z,2.41
2023-02-09T10:48:49.792Z,2.42
2023-02-09T10:49:28.737Z,2.53
2023-02-09T10:50:28.663Z,2.59
2023-02-09T10:51:28.562Z,2.57
2023-02-09T10:52:28.468Z,2.56
2023-02-09T10:53:28.388Z,2.80
2023-02-09T10:54:49.299Z,3.01
2023-02-09T10:55:28.213Z,2.88
2023-02-09T10:56:28.132Z,2.84
2023-02-09T10:57:28.055Z,2.78
2023-02-09T10:58:27.969Z,2.75
2023-02-09T10:59:27.871Z,2.84
2023-02-09T11:00:48.771Z,2.86
2023-02-09T11:01:27.735Z,3.01
2023-02-09T11:02:27.628Z,3.06
2023-02-09T11:03:27.547Z,3.21
2023-02-09T11:04:27.554Z,3.17
2023-02-09T11:05:27.370Z,2.99
2023-02-09T11:06:48.290Z,3.01
2023-02-09T11:07:27.203Z,3.16
2023-02-09T11:08:27.122Z,3.13
2023-02-09T11:09:27.035Z,3.17
2023-02-09T11:10:26.941Z,3.19
2023-02-09T11:11:26.869Z,3.04
2023-02-09T11:12:47.763Z,2.99
2023-02-09T11:13:26.689Z,3.14
2023-02-09T11:14:26.618Z,3.34
2023-02-09T11:15:26.520Z,3.46
2023-02-09T11:16:26.529Z,3.66
2023-02-09T11:17:26.352Z,3.72
2023-02-09T11:18:47.254Z,3.92
2023-02-09T11:19:26.178Z,3.84
2023-02-09T11:20:26.109Z,4.02
2023-02-09T11:21:26.023Z,4.08
2023-02-09T11:22:28.889Z,4.19
2023-02-09T11:23:25.838Z,4.36
2023-02-09T11:24:46.745Z,4.36
2023-02-09T11:25:25.678Z,4.34
2023-02-09T11:26:25.598Z,4.40
2023-02-09T11:27:25.509Z,4.11
2023-02-09T11:28:25.422Z,3.98
2023-02-09T11:29:25.340Z,4.02
2023-02-09T11:30:46.639Z,4.11
2023-02-09T11:31:25.279Z,4.11
2023-02-09T11:32:25.081Z,4.08
2023-02-09T11:33:24.996Z,4.12
2023-02-09T11:34:26.285Z,4.10
2023-02-09T11:35:24.837Z,4.04
2023-02-09T11:36:45.729Z,3.98
2023-02-09T11:37:24.667Z,3.98
2023-02-09T11:38:24.573Z,4.01
2023-02-09T11:39:24.496Z,4.02
2023-02-09T11:40:24.423Z,4.04
2023-02-09T11:41:24.315Z,4.10
2023-02-09T11:42:45.233Z,4.20
2023-02-09T11:43:24.156Z,4.20
2023-02-09T11:44:24.087Z,4.34
2023-02-09T11:45:23.980Z,4.43
2023-02-09T11:46:23.944Z,4.47
2023-02-09T11:47:23.821Z,4.55
2023-02-09T11:48:44.721Z,4.66
2023-02-09T11:49:23.640Z,4.76
2023-02-09T11:50:23.560Z,4.95
2023-02-09T11:51:23.484Z,4.91
2023-02-09T11:52:23.394Z,5.06
2023-02-09T11:53:23.310Z,5.13
2023-02-09T11:54:44.219Z,5.23
2023-02-09T11:55:23.137Z,5.35
2023-02-09T11:56:23.057Z,5.36
2023-02-09T11:57:22.980Z,5.34
2023-02-09T11:58:22.897Z,5.35
2023-02-09T11:59:23.042Z,5.42
2023-02-09T12:00:53.436Z,5.49
2023-02-09T12:01:22.646Z,5.42
2023-02-09T12:02:23.814Z,5.34
2023-02-09T12:03:22.477Z,5.20
2023-02-09T12:04:22.387Z,5.13
2023-02-09T12:05:22.308Z,5.18
2023-02-09T12:06:43.243Z,5.35
2023-02-09T12:07:22.238Z,5.36
2023-02-09T12:08:22.063Z,5.26
2023-02-09T12:09:21.966Z,5.34
2023-02-09T12:10:21.891Z,5.26
2023-02-09T12:11:21.805Z,5.17
2023-02-09T12:12:42.705Z,5.28
2023-02-09T12:13:21.642Z,5.34
2023-02-09T12:14:21.556Z,5.38
2023-02-09T12:15:21.481Z,5.59
2023-02-09T12:16:21.456Z,5.57
2023-02-09T12:17:21.301Z,5.70
2023-02-09T12:18:42.199Z,5.60
2023-02-09T12:19:21.133Z,5.67
2023-02-09T12:20:21.064Z,5.74
2023-02-09T12:21:20.959Z,5.85
2023-02-09T12:22:20.879Z,5.99
2023-02-09T12:23:20.798Z,6.07
2023-02-09T12:24:41.689Z,6.15
2023-02-09T12:25:20.642Z,6.17
2023-02-09T12:26:20.548Z,6.10
2023-02-09T12:27:20.469Z,6.11
2023-02-09T12:28:20.404Z,6.07
2023-02-09T12:29:20.303Z,6.13
2023-02-09T12:30:41.237Z,6.08
2023-02-09T12:31:20.229Z,6.13
2023-02-09T12:32:20.050Z,6.10
2023-02-09T12:33:19.964Z,6.10
2023-02-09T12:34:19.882Z,6.03
2023-02-09T12:35:19.797Z,5.97
2023-02-09T12:36:40.684Z,6.03
2023-02-09T12:37:19.662Z,6.13
2023-02-09T12:38:19.555Z,6.08
2023-02-09T12:39:23.763Z,6.04
2023-02-09T12:40:19.372Z,6.03
2023-02-09T12:41:19.300Z,6.06
2023-02-09T12:42:40.191Z,6.03
2023-02-09T12:43:19.142Z,6.08
2023-02-09T12:44:19.048Z,5.86
2023-02-09T12:45:18.977Z,5.56
2023-02-09T12:46:18.901Z,5.53
2023-02-09T12:47:18.800Z,5.57
2023-02-09T12:48:39.697Z,5.56
2023-02-09T12:49:18.732Z,5.44
2023-02-09T12:50:18.538Z,5.41
2023-02-09T12:51:18.469Z,5.47
2023-02-09T12:52:18.390Z,5.32
2023-02-09T12:53:18.314Z,5.34
2023-02-09T12:54:39.191Z,5.50
2023-02-09T12:55:18.131Z,5.60
2023-02-09T12:56:18.033Z,5.63
2023-02-09T12:57:17.966Z,5.65
2023-02-09T12:58:17.878Z,5.68
2023-02-09T12:59:17.819Z,5.63
2023-02-09T13:00:38.738Z,5.65